createdAt,value
2022-11-17T00:03:04.460Z,10.20
2022-11-17T00:07:08.074Z,13.98
2022-11-17T00:11:13.124Z,21.55
2022-11-17T00:15:16.793Z,11.98
2022-11-17T00:19:37.602Z,12.98
2022-11-17T00:23:50.713Z,17.85
2022-11-17T00:27:55.470Z,11.95
2022-11-17T00:36:08.487Z,18.83
2022-11-17T00:40:13.250Z,19.40
2022-11-17T00:44:18.808Z,15.57
2022-11-17T00:48:21.766Z,20.52
2022-11-17T00:52:25.328Z,16.48
2022-11-17T00:56:29.522Z,21.15
2022-11-17T01:00:34.169Z,17.08
2022-11-17T01:04:37.836Z,15.82
2022-11-17T01:08:41.299Z,16.30
2022-11-17T01:12:44.362Z,14.50
2022-11-17T01:16:49.786Z,16.80
2022-11-17T01:20:53.112Z,23.02
2022-11-17T01:24:56.140Z,19.83
2022-11-17T01:29:01.013Z,17.80
2022-11-17T01:33:06.154Z,17.17
2022-11-17T01:37:21.598Z,13.35
2022-11-17T01:41:26.965Z,14.70
2022-11-17T01:45:30.518Z,14.65
2022-11-17T01:49:35.288Z,16.70
2022-11-17T01:53:39.658Z,10.20
2022-11-17T01:57:49.011Z,17.45
2022-11-17T02:01:57.203Z,16.08
2022-11-17T02:06:07.842Z,8.90
2022-11-17T02:10:11.001Z,13.18
2022-11-17T02:14:14.887Z,15.25
2022-11-17T02:18:18.811Z,13.18
2022-11-17T02:22:55.550Z,16.60
2022-11-17T02:27:37.708Z,16.05
2022-11-17T02:31:47.787Z,11.75
2022-11-17T02:35:57.014Z,15.57
2022-11-17T02:40:05.574Z,15.55
2022-11-17T02:44:14.371Z,10.57
2022-11-17T02:48:24.225Z,15.05
2022-11-17T02:52:29.372Z,13.07
2022-11-17T02:56:32.364Z,25.98
2022-11-17T03:00:45.586Z,30.30
2022-11-17T03:05:02.020Z,21.98
2022-11-17T03:09:21.710Z,20.17
2022-11-17T03:13:32.751Z,19.70
2022-11-17T03:17:48.186Z,36.83
2022-11-17T03:21:58.242Z,30.95
2022-11-17T03:26:04.263Z,21.05
2022-11-17T03:30:09.706Z,19.40
2022-11-17T03:34:19.127Z,22.20
2022-11-17T03:38:28.616Z,36.90
2022-11-17T03:42:35.957Z,15.85
2022-11-17T03:51:10.636Z,24.92
2022-11-17T03:55:15.264Z,31.67
2022-11-17T03:59:24.193Z,36.22
2022-11-17T04:03:31.811Z,32.63
2022-11-17T04:07:40.683Z,25.42
2022-11-17T04:12:00.996Z,31.10
2022-11-17T04:16:04.597Z,37.60
2022-11-17T04:20:09.255Z,42.15
2022-11-17T04:24:14.456Z,23.17
2022-11-17T04:28:34.855Z,18.67
2022-11-17T04:32:38.760Z,29.77
2022-11-17T04:36:46.514Z,22.60
2022-11-17T04:41:05.377Z,25.38
2022-11-17T04:45:09.575Z,33.97
2022-11-17T04:49:13.595Z,26.00
2022-11-17T04:53:16.584Z,31.55
2022-11-17T04:57:21.420Z,32.33
2022-11-17T05:01:27.819Z,36.90
2022-11-17T05:05:31.420Z,22.90
2022-11-17T05:09:34.578Z,38.38
2022-11-17T05:13:38.603Z,30.17
2022-11-17T05:17:41.805Z,31.20
2022-11-17T05:21:45.608Z,42.70
2022-11-17T05:25:48.948Z,51.08
2022-11-17T05:29:53.711Z,14.77
2022-11-17T05:33:57.101Z,35.05
2022-11-17T05:38:00.609Z,29.40
2022-11-17T05:42:03.705Z,17.33
2022-11-17T05:46:08.742Z,25.48
2022-11-17T05:50:11.994Z,26.25
2022-11-17T05:54:15.691Z,14.60
2022-11-17T05:58:23.828Z,51.88
2022-11-17T06:02:33.579Z,62.15
2022-11-17T06:06:38.885Z,43.97
2022-11-17T06:10:42.602Z,35.60
2022-11-17T06:14:46.639Z,35.53
2022-11-17T06:18:55.195Z,32.95
2022-11-17T06:23:02.195Z,52.65
2022-11-17T06:27:05.968Z,39.67
2022-11-17T06:31:09.635Z,47.35
2022-11-17T06:35:16.717Z,60.08
2022-11-17T06:39:20.180Z,54.20
2022-11-17T06:43:23.634Z,48.42
2022-11-17T06:47:27.186Z,44.08
2022-11-17T06:51:31.677Z,36.45
2022-11-17T06:55:35.890Z,50.30
2022-11-17T06:59:39.402Z,37.92
2022-11-17T07:03:44.034Z,35.75
2022-11-17T07:07:49.023Z,67.22
2022-11-17T07:11:52.612Z,21.60
2022-11-17T07:15:55.693Z,43.88
2022-11-17T07:19:59.247Z,59.45
2022-11-17T07:24:03.733Z,63.53
2022-11-17T07:28:06.997Z,35.50
2022-11-17T07:32:14.743Z,38.58
2022-11-17T07:36:18.149Z,39.67
2022-11-17T07:40:23.063Z,58.25
2022-11-17T07:44:26.463Z,55.42
2022-11-17T07:48:29.949Z,28.10
2022-11-17T07:52:37.248Z,46.80
2022-11-17T07:56:45.851Z,33.17
2022-11-17T08:00:49.566Z,21.27
2022-11-17T08:04:53.333Z,18.90
2022-11-17T08:08:57.176Z,29.23
2022-11-17T08:13:02.616Z,29.33
2022-11-17T08:17:06.161Z,41.58
2022-11-17T08:21:10.673Z,39.95
2022-11-17T08:25:14.412Z,34.72
2022-11-17T08:29:18.859Z,47.47
2022-11-17T08:33:22.072Z,33.83
2022-11-17T08:37:25.173Z,26.95
2022-11-17T08:41:28.729Z,29.63
2022-11-17T08:45:33.538Z,29.92
2022-11-17T08:49:37.122Z,26.08
2022-11-17T08:53:41.573Z,22.55
2022-11-17T08:57:45.521Z,24.60
2022-11-17T09:01:49.930Z,22.23
2022-11-17T09:05:53.675Z,17.85
2022-11-17T09:10:00.464Z,19.83
2022-11-17T09:14:04.170Z,24.60
2022-11-17T09:18:08.612Z,15.48
2022-11-17T09:22:12.152Z,19.20
2022-11-17T09:26:17.202Z,18.00
2022-11-17T09:30:22.786Z,18.00
2022-11-17T09:34:27.706Z,15.52
2022-11-17T09:38:31.311Z,22.83
2022-11-17T09:42:40.511Z,18.30
2022-11-17T09:46:56.880Z,14.85
2022-11-17T09:51:03.286Z,17.13
2022-11-17T09:55:20.432Z,18.35
2022-11-17T09:59:27.268Z,14.68
2022-11-17T10:03:37.555Z,15.88
2022-11-17T10:07:50.963Z,17.58
2022-11-17T10:11:56.070Z,22.75
2022-11-17T10:16:04.141Z,18.17
2022-11-17T10:20:16.992Z,19.17
2022-11-17T10:28:41.322Z,18.42
2022-11-17T10:32:51.340Z,19.25
2022-11-17T10:36:55.031Z,17.58
2022-11-17T10:41:03.168Z,17.90
2022-11-17T10:45:08.122Z,16.13
2022-11-17T10:49:26.128Z,16.20
2022-11-17T10:53:44.931Z,15.95
2022-11-17T10:57:53.282Z,21.10
2022-11-17T11:01:56.759Z,18.80
2022-11-17T11:06:22.765Z,16.65
2022-11-17T11:10:33.390Z,21.05
2022-11-17T11:14:42.092Z,13.73
2022-11-17T11:18:46.351Z,17.80
2022-11-17T11:22:58.614Z,16.75
2022-11-17T11:27:11.033Z,21.45
2022-11-17T11:31:29.734Z,14.88
2022-11-17T11:35:57.012Z,15.27
2022-11-17T11:40:11.306Z,12.45
2022-11-17T11:44:32.775Z,12.75
2022-11-17T11:48:41.786Z,13.23
2022-11-17T11:52:50.247Z,16.35
2022-11-17T11:56:55.394Z,12.18
2022-11-17T12:01:06.369Z,8.52
2022-11-17T12:05:20.532Z,13.10
2022-11-17T12:09:48.315Z,9.82
2022-11-17T12:13:54.464Z,9.77
2022-11-17T12:18:01.652Z,8.25
2022-11-17T12:22:06.904Z,9.07
2022-11-17T12:26:23.593Z,18.23
2022-11-17T12:30:54.624Z,10.80
2022-11-17T12:35:26.576Z,10.98
2022-11-17T12:40:10.284Z,13.73
2022-11-17T12:44:50.374Z,12.20
2022-11-17T12:49:06.694Z,12.90
2022-11-17T12:53:25.755Z,8.30
2022-11-17T12:57:33.757Z,7.10
2022-11-17T13:01:46.139Z,11.25
2022-11-17T13:06:33.655Z,14.93
2022-11-17T13:10:33.365Z,13.15
2022-11-17T13:14:38.979Z,8.57
2022-11-17T13:18:44.790Z,11.60
2022-11-17T13:23:00.602Z,11.90
2022-11-17T13:27:07.490Z,11.38
2022-11-17T13:31:15.089Z,6.53
2022-11-17T13:35:23.577Z,7.95
2022-11-17T13:39:28.692Z,11.18
2022-11-17T13:43:40.450Z,10.45
2022-11-17T13:47:47.453Z,10.65
2022-11-17T13:51:52.472Z,9.70
2022-11-17T13:55:56.308Z,12.13
2022-11-17T14:00:03.508Z,11.00
2022-11-17T14:04:27.235Z,10.57
2022-11-17T14:08:34.248Z,12.23
2022-11-17T14:12:38.905Z,10.05
2022-11-17T14:16:43.855Z,8.75
2022-11-17T14:20:47.134Z,9.95
2022-11-17T14:24:52.363Z,8.68
2022-11-17T14:29:02.114Z,10.38
2022-11-17T14:33:12.119Z,17.35
2022-11-17T14:37:16.905Z,13.60
2022-11-17T14:41:22.668Z,14.85
2022-11-17T14:45:25.764Z,11.55
2022-11-17T14:49:29.446Z,14.52
2022-11-17T14:53:32.525Z,13.10
2022-11-17T14:57:38.704Z,10.40
2022-11-17T15:01:43.005Z,12.70
2022-11-17T15:05:47.260Z,10.85
2022-11-17T15:09:50.702Z,15.43
2022-11-17T15:13:55.444Z,12.35
2022-11-17T15:17:58.536Z,14.90
2022-11-17T15:22:01.696Z,16.27
2022-11-17T15:26:06.741Z,15.73
2022-11-17T15:30:12.546Z,13.43
2022-11-17T15:34:19.987Z,14.20
2022-11-17T15:38:23.445Z,13.80
2022-11-17T15:42:27.129Z,13.10
2022-11-17T15:46:31.573Z,18.67
2022-11-17T15:50:35.176Z,13.85
2022-11-17T15:54:38.367Z,14.68
2022-11-17T15:58:42.847Z,16.60
2022-11-17T16:02:47.991Z,14.90
2022-11-17T16:06:51.268Z,16.52
2022-11-17T16:10:54.395Z,16.73
2022-11-17T16:14:57.616Z,15.43
2022-11-17T16:19:02.805Z,12.60
2022-11-17T16:23:06.335Z,13.13
2022-11-17T16:27:13.230Z,23.50
2022-11-17T16:31:18.348Z,15.60
2022-11-17T16:35:22.882Z,16.58
2022-11-17T16:39:26.413Z,12.85
2022-11-17T16:43:29.594Z,18.33
2022-11-17T16:47:35.248Z,13.15
2022-11-17T16:51:39.995Z,13.82
2022-11-17T16:55:43.506Z,16.60
2022-11-17T16:59:47.019Z,20.80
2022-11-17T17:03:50.312Z,17.58
2022-11-17T17:07:55.284Z,16.52
2022-11-17T17:11:58.925Z,16.35
2022-11-17T17:16:04.401Z,18.00
2022-11-17T17:20:09.457Z,15.48
2022-11-17T17:24:15.379Z,13.63
2022-11-17T17:28:18.690Z,15.48
2022-11-17T17:32:22.209Z,18.45
2022-11-17T17:36:26.364Z,16.33
2022-11-17T17:40:31.987Z,18.38
2022-11-17T17:44:35.664Z,16.90
2022-11-17T17:48:40.516Z,18.35
2022-11-17T17:52:44.188Z,18.88
2022-11-17T17:56:50.016Z,16.20
2022-11-17T18:00:53.986Z,19.25
2022-11-17T18:04:58.172Z,14.38
2022-11-17T18:09:01.445Z,17.42
2022-11-17T18:13:10.628Z,20.17
2022-11-17T18:17:14.667Z,14.30
2022-11-17T18:21:20.592Z,19.42
2022-11-17T18:25:24.188Z,14.98
2022-11-17T18:29:29.291Z,17.42
2022-11-17T18:33:34.944Z,16.75
2022-11-17T18:37:38.574Z,20.52
2022-11-17T18:41:42.221Z,15.27
2022-11-17T18:45:47.949Z,16.27
2022-11-17T18:49:51.554Z,17.33
2022-11-17T18:54:00.602Z,24.17
2022-11-17T18:58:14.426Z,16.08
2022-11-17T19:02:20.231Z,22.05
2022-11-17T19:06:28.331Z,17.48
2022-11-17T19:10:32.705Z,15.38
2022-11-17T19:14:36.935Z,12.27
2022-11-17T19:18:42.486Z,23.08
2022-11-17T19:22:46.399Z,37.45
2022-11-17T19:26:51.241Z,20.95
2022-11-17T19:30:54.810Z,17.05
2022-11-17T19:35:11.832Z,19.10
2022-11-17T19:39:21.561Z,20.08
2022-11-17T19:43:25.364Z,16.90
2022-11-17T19:47:29.573Z,13.95
2022-11-17T19:51:37.418Z,17.08
2022-11-17T19:55:40.778Z,13.63
2022-11-17T19:59:44.569Z,12.75
2022-11-17T20:03:49.158Z,19.65
2022-11-17T20:07:53.811Z,15.90
2022-11-17T20:11:57.832Z,17.85
2022-11-17T20:16:06.179Z,15.70
2022-11-17T20:20:13.787Z,16.73
2022-11-17T20:24:18.849Z,20.15
2022-11-17T20:28:22.314Z,13.63
2022-11-17T20:32:25.645Z,15.07
2022-11-17T20:36:33.608Z,15.73
2022-11-17T20:40:41.172Z,16.85
2022-11-17T20:44:45.337Z,15.30
2022-11-17T20:48:50.138Z,15.38
2022-11-17T20:52:53.964Z,15.75
2022-11-17T20:56:58.840Z,16.35
2022-11-17T21:01:10.168Z,20.63
2022-11-17T21:05:13.451Z,18.92
2022-11-17T21:09:17.322Z,13.88
2022-11-17T21:13:25.031Z,13.65
2022-11-17T21:17:45.290Z,63.10
2022-11-17T21:21:50.734Z,71.57
2022-11-17T21:25:53.894Z,23.92
2022-11-17T21:29:59.578Z,100.68
2022-11-17T21:34:04.410Z,49.58
2022-11-17T21:38:11.454Z,30.05
2022-11-17T21:42:18.225Z,55.90
2022-11-17T21:46:26.843Z,59.13
2022-11-17T21:50:30.247Z,58.65
2022-11-17T21:54:33.962Z,38.10
2022-11-17T21:58:37.796Z,23.27
2022-11-17T22:02:42.927Z,62.35
2022-11-17T22:06:46.649Z,33.20
2022-11-17T22:10:50.250Z,39.50
2022-11-17T22:14:53.551Z,23.42
2022-11-17T22:18:58.497Z,25.00
2022-11-17T22:23:01.764Z,47.92
2022-11-17T22:27:07.218Z,37.30
2022-11-17T22:31:11.227Z,34.40
2022-11-17T22:35:16.651Z,43.22
2022-11-17T22:39:20.023Z,40.60
2022-11-17T22:43:23.750Z,27.05
2022-11-17T22:47:27.068Z,24.88
2022-11-17T22:51:49.812Z,32.40
2022-11-17T22:55:53.090Z,16.17
2022-11-17T22:59:56.833Z,22.10
2022-11-17T23:04:00.237Z,21.55
2022-11-17T23:08:09.567Z,32.58
2022-11-17T23:12:13.163Z,36.10
2022-11-17T23:16:16.192Z,57.22
2022-11-17T23:20:21.134Z,31.10
2022-11-17T23:24:25.695Z,56.78
2022-11-17T23:28:28.867Z,40.40
2022-11-17T23:32:32.216Z,33.63
2022-11-17T23:36:35.913Z,27.30
2022-11-17T23:40:40.521Z,61.67
2022-11-17T23:44:44.485Z,34.97
2022-11-17T23:48:47.873Z,43.67
2022-11-17T23:52:51.515Z,28.67
2022-11-17T23:56:56.750Z,16.42
